createdAt,value
2023-02-02T00:02:33.555Z,14.00
2023-02-02T00:12:39.895Z,12.93
2023-02-02T00:17:44.799Z,13.25
2023-02-02T00:22:48.142Z,14.30
2023-02-02T00:27:51.567Z,13.50
2023-02-02T00:32:56.511Z,13.05
2023-02-02T00:38:01.815Z,13.05
2023-02-02T00:43:05.273Z,12.73
2023-02-02T00:48:10.991Z,10.52
2023-02-02T00:53:14.433Z,10.00
2023-02-02T00:58:17.873Z,11.23
2023-02-02T01:03:22.784Z,10.00
2023-02-02T01:13:29.513Z,8.30
2023-02-02T01:18:34.345Z,8.63
2023-02-02T01:23:39.497Z,8.00
2023-02-02T01:28:43.252Z,8.90
2023-02-02T01:33:49.339Z,8.35
2023-02-02T01:38:52.954Z,8.40
2023-02-02T01:43:59.393Z,9.40
2023-02-02T01:49:09.660Z,9.85
2023-02-02T01:54:17.255Z,9.82
2023-02-02T01:59:21.215Z,12.13
2023-02-02T02:04:28.497Z,12.77
2023-02-02T02:09:32.069Z,13.38
2023-02-02T02:14:53.027Z,13.20
2023-02-02T02:20:53.849Z,12.48
2023-02-02T02:26:37.039Z,14.30
2023-02-02T02:32:07.107Z,13.23
2023-02-02T02:37:15.396Z,12.07
2023-02-02T02:42:22.487Z,12.45
2023-02-02T02:47:27.376Z,12.98
2023-02-02T02:58:02.674Z,12.05
2023-02-02T03:03:15.655Z,12.43
2023-02-02T03:08:26.170Z,13.60
2023-02-02T03:13:30.593Z,11.82
2023-02-02T03:18:36.358Z,13.50
2023-02-02T03:23:39.927Z,11.65
2023-02-02T03:28:43.653Z,12.88
2023-02-02T03:33:48.641Z,11.85
2023-02-02T03:43:55.097Z,11.68
2023-02-02T03:48:59.952Z,11.45
2023-02-02T03:59:06.835Z,11.95
2023-02-02T04:04:11.659Z,12.27
2023-02-02T04:09:14.989Z,13.13
2023-02-02T04:14:18.543Z,11.82
2023-02-02T04:19:23.259Z,14.35
2023-02-02T04:24:26.788Z,13.18
2023-02-02T04:29:30.406Z,12.35
2023-02-02T04:34:35.234Z,12.73
2023-02-02T04:44:41.815Z,12.27
2023-02-02T04:49:46.797Z,12.65
2023-02-02T04:59:53.392Z,12.13
2023-02-02T05:04:58.320Z,12.45
2023-02-02T05:15:05.821Z,12.27
2023-02-02T05:20:12.112Z,12.70
2023-02-02T05:25:15.574Z,12.88
2023-02-02T05:30:19.732Z,11.18
2023-02-02T05:35:25.001Z,12.88
2023-02-02T05:40:28.734Z,12.75
2023-02-02T05:45:33.184Z,11.77
2023-02-02T05:50:38.009Z,11.18
2023-02-02T05:55:41.488Z,13.95
2023-02-02T06:00:44.939Z,11.93
2023-02-02T06:05:49.932Z,12.68
2023-02-02T06:15:56.625Z,14.02
2023-02-02T06:21:02.264Z,14.25
2023-02-02T06:26:08.335Z,13.52
2023-02-02T06:31:13.538Z,13.88
2023-02-02T06:36:18.814Z,14.85
2023-02-02T06:41:22.847Z,14.60
2023-02-02T06:46:26.368Z,13.83
2023-02-02T06:51:31.337Z,13.40
2023-02-02T07:01:37.953Z,12.77
2023-02-02T07:06:42.892Z,14.93
2023-02-02T07:16:49.319Z,13.80
2023-02-02T07:21:54.173Z,16.50
2023-02-02T07:32:01.763Z,17.70
2023-02-02T07:37:06.668Z,16.85
2023-02-02T07:47:17.435Z,19.10
2023-02-02T07:52:22.276Z,17.25
2023-02-02T08:02:30.766Z,14.23
2023-02-02T08:07:38.377Z,14.30
2023-02-02T08:12:41.817Z,14.75
2023-02-02T08:17:50.174Z,14.68
2023-02-02T08:22:55.063Z,15.77
2023-02-02T08:33:02.283Z,16.40
2023-02-02T08:38:07.665Z,16.42
2023-02-02T08:43:11.248Z,17.30
2023-02-02T08:48:17.274Z,16.20
2023-02-02T08:53:22.743Z,16.42
2023-02-02T08:58:26.177Z,16.13
2023-02-02T09:03:29.660Z,15.25
2023-02-02T09:08:34.830Z,14.43
2023-02-02T09:13:39.741Z,14.63
2023-02-02T09:18:44.609Z,14.82
2023-02-02T09:28:55.435Z,12.90
2023-02-02T09:34:02.647Z,14.40
2023-02-02T09:39:08.412Z,14.60
2023-02-02T09:44:24.375Z,14.07
2023-02-02T09:49:33.196Z,13.80
2023-02-02T09:54:44.936Z,13.30
2023-02-02T09:59:51.319Z,13.18
2023-02-02T10:04:57.933Z,14.07
2023-02-02T10:10:07.443Z,14.13
2023-02-02T10:15:20.813Z,13.05
2023-02-02T10:20:35.154Z,13.13
2023-02-02T10:25:46.425Z,11.80
2023-02-02T10:31:02.259Z,13.35
2023-02-02T10:36:17.664Z,13.07
2023-02-02T10:41:32.864Z,13.10
2023-02-02T10:46:42.018Z,13.15
2023-02-02T10:51:50.688Z,12.57
2023-02-02T10:57:00.582Z,11.80
2023-02-02T11:02:19.994Z,12.82
2023-02-02T11:07:24.171Z,12.48
2023-02-02T11:12:34.081Z,12.50
2023-02-02T11:17:38.452Z,12.90
2023-02-02T11:22:41.997Z,12.80
2023-02-02T11:27:47.357Z,12.20
2023-02-02T11:32:50.999Z,12.65
2023-02-02T11:38:09.580Z,12.30
2023-02-02T11:43:20.567Z,13.10
2023-02-02T11:48:28.312Z,11.82
2023-02-02T11:53:34.654Z,11.50
2023-02-02T11:58:49.989Z,10.18
2023-02-02T12:03:55.285Z,10.70
2023-02-02T12:09:01.535Z,11.43
2023-02-02T12:14:22.346Z,12.15
2023-02-02T12:19:46.156Z,11.20
2023-02-02T12:24:58.313Z,13.25
2023-02-02T12:30:19.156Z,12.60
2023-02-02T12:35:49.736Z,12.10
2023-02-02T12:41:11.778Z,13.07
2023-02-02T12:46:29.728Z,12.40
2023-02-02T12:51:48.121Z,11.32
2023-02-02T12:57:05.232Z,11.88
2023-02-02T13:02:23.808Z,12.13
2023-02-02T13:07:34.294Z,11.77
2023-02-02T13:12:44.414Z,12.05
2023-02-02T13:17:54.040Z,11.90
2023-02-02T13:23:00.707Z,12.88
2023-02-02T13:28:08.312Z,13.50
2023-02-02T13:33:20.084Z,14.70
2023-02-02T13:38:25.950Z,15.43
2023-02-02T13:43:41.506Z,15.80
2023-02-02T13:48:54.984Z,15.20
2023-02-02T13:54:21.761Z,15.27
2023-02-02T13:59:46.072Z,16.67
2023-02-02T14:04:57.872Z,14.13
2023-02-02T14:10:01.636Z,15.07
2023-02-02T14:15:07.343Z,14.50
2023-02-02T14:20:41.942Z,14.57
2023-02-02T14:26:06.722Z,13.13
2023-02-02T14:31:29.981Z,14.55
2023-02-02T14:36:38.873Z,15.18
2023-02-02T14:42:35.271Z,14.48
2023-02-02T14:47:48.279Z,14.77
2023-02-02T14:53:04.000Z,15.57
2023-02-02T14:58:08.054Z,16.35
2023-02-02T15:03:37.100Z,15.50
2023-02-02T15:08:41.947Z,14.25
2023-02-02T15:19:00.772Z,13.90
2023-02-02T15:24:07.699Z,16.17
2023-02-02T15:29:18.554Z,15.32
2023-02-02T15:34:26.259Z,16.13
2023-02-02T15:39:34.064Z,15.07
2023-02-02T15:44:38.681Z,16.75
2023-02-02T15:49:42.564Z,16.10
2023-02-02T15:54:56.264Z,15.85
2023-02-02T16:00:00.986Z,18.10
2023-02-02T16:05:24.282Z,17.38
2023-02-02T16:10:29.457Z,16.63
2023-02-02T16:20:39.674Z,19.85
2023-02-02T16:25:50.194Z,19.85
2023-02-02T16:30:54.417Z,19.20
2023-02-02T16:35:58.547Z,16.05
2023-02-02T16:41:11.541Z,18.47
2023-02-02T16:46:17.694Z,18.75
2023-02-02T16:51:28.287Z,18.35
2023-02-02T16:56:36.769Z,18.35
2023-02-02T17:01:42.993Z,19.20
2023-02-02T17:06:52.932Z,15.65
2023-02-02T17:12:02.569Z,18.17
2023-02-02T17:17:07.713Z,18.48
2023-02-02T17:22:12.344Z,17.38
2023-02-02T17:27:22.762Z,17.85
2023-02-02T17:32:27.046Z,17.60
2023-02-02T17:37:30.846Z,18.38
2023-02-02T17:42:36.066Z,17.38
2023-02-02T17:47:40.092Z,16.65
2023-02-02T17:52:43.602Z,15.87
2023-02-02T17:57:48.602Z,17.20
2023-02-02T18:02:56.800Z,17.17
2023-02-02T18:08:00.360Z,15.60
2023-02-02T18:13:05.388Z,16.27
2023-02-02T18:18:08.894Z,15.15
2023-02-02T18:23:12.944Z,15.75
2023-02-02T18:28:18.131Z,16.15
2023-02-02T18:33:23.498Z,18.85
2023-02-02T18:38:26.981Z,16.85
2023-02-02T18:43:32.060Z,15.73
2023-02-02T18:53:38.397Z,18.02
2023-02-02T18:58:43.375Z,17.63
2023-02-02T19:03:50.153Z,16.27
2023-02-02T19:08:53.709Z,16.70
2023-02-02T19:13:58.770Z,19.10
2023-02-02T19:19:09.425Z,20.23
2023-02-02T19:24:13.829Z,19.75
2023-02-02T19:29:22.029Z,18.95
2023-02-02T19:34:25.615Z,18.27
2023-02-02T19:39:32.665Z,20.63
2023-02-02T19:44:39.189Z,16.38
2023-02-02T19:49:42.689Z,19.10
2023-02-02T19:55:19.694Z,18.10
2023-02-02T20:00:27.299Z,17.75
2023-02-02T20:05:35.507Z,17.30
2023-02-02T20:10:42.960Z,17.67
2023-02-02T20:15:48.703Z,18.60
2023-02-02T20:20:55.605Z,17.75
2023-02-02T20:25:59.608Z,17.70
2023-02-02T20:31:06.836Z,19.20
2023-02-02T20:36:38.053Z,16.65
2023-02-02T20:41:41.548Z,14.35
2023-02-02T20:46:46.461Z,16.13
2023-02-02T20:56:54.578Z,17.27
2023-02-02T21:01:59.585Z,15.15
2023-02-02T21:07:03.098Z,20.52
2023-02-02T21:17:28.877Z,19.55
2023-02-02T21:22:32.251Z,19.60
2023-02-02T21:27:35.909Z,19.15
2023-02-02T21:32:40.965Z,18.95
2023-02-02T21:37:46.924Z,18.80
2023-02-02T21:42:51.114Z,16.80
2023-02-02T21:47:58.659Z,18.88
2023-02-02T21:53:19.001Z,17.48
2023-02-02T21:58:27.720Z,19.42
2023-02-02T22:03:35.568Z,19.60
2023-02-02T22:08:39.052Z,17.98
2023-02-02T22:13:42.573Z,20.17
2023-02-02T22:18:47.821Z,20.55
2023-02-02T22:23:51.309Z,20.15
2023-02-02T22:28:55.041Z,20.05
2023-02-02T22:33:59.896Z,18.98
2023-02-02T22:44:06.836Z,19.50
2023-02-02T22:49:11.646Z,21.23
2023-02-02T22:54:14.969Z,20.98
2023-02-02T22:59:18.555Z,22.23
2023-02-02T23:04:23.448Z,21.00
2023-02-02T23:14:30.042Z,20.13
2023-02-02T23:19:35.187Z,19.48
2023-02-02T23:24:38.629Z,21.90
2023-02-02T23:29:42.221Z,20.30
2023-02-02T23:39:51.879Z,21.40
2023-02-02T23:44:55.177Z,21.55
2023-02-02T23:50:00.045Z,19.42
